sensor_id;sensor_type;location;lat;lon;timestamp;temperature;humidity
24454;DHT22;12627;50.860;5.714;2022-12-13T00:00:58;-5.00;99.90
24454;DHT22;12627;50.860;5.714;2022-12-13T00:03:25;-5.00;99.90
24454;DHT22;12627;50.860;5.714;2022-12-13T00:05:52;-5.00;99.90
24454;DHT22;12627;50.860;5.714;2022-12-13T00:08:20;-5.00;99.90
24454;DHT22;12627;50.860;5.714;2022-12-13T00:10:58;-4.70;99.90
24454;DHT22;12627;50.860;5.714;2022-12-13T00:13:25;-4.70;99.90
24454;DHT22;12627;50.860;5.714;2022-12-13T00:15:57;-4.90;99.90
24454;DHT22;12627;50.860;5.714;2022-12-13T00:18:25;-5.10;99.90
24454;DHT22;12627;50.860;5.714;2022-12-13T00:20:52;-5.10;99.90
24454;DHT22;12627;50.860;5.714;2022-12-13T00:23:19;-5.10;99.90
24454;DHT22;12627;50.860;5.714;2022-12-13T00:25:48;-5.10;99.90
24454;DHT22;12627;50.860;5.714;2022-12-13T00:28:15;-5.10;99.90
24454;DHT22;12627;50.860;5.714;2022-12-13T00:30:43;-5.20;99.90
24454;DHT22;12627;50.860;5.714;2022-12-13T00:33:10;-5.30;99.90
24454;DHT22;12627;50.860;5.714;2022-12-13T00:35:39;-5.30;99.90
24454;DHT22;12627;50.860;5.714;2022-12-13T00:38:08;-5.30;99.90
24454;DHT22;12627;50.860;5.714;2022-12-13T00:40:36;-5.30;99.90
24454;DHT22;12627;50.860;5.714;2022-12-13T00:43:04;-5.30;99.90
24454;DHT22;12627;50.860;5.714;2022-12-13T00:45:32;-5.30;99.90
24454;DHT22;12627;50.860;5.714;2022-12-13T00:47:59;-5.30;99.90
24454;DHT22;12627;50.860;5.714;2022-12-13T00:50:26;-5.30;99.90
24454;DHT22;12627;50.860;5.714;2022-12-13T00:52:54;-5.30;99.90
24454;DHT22;12627;50.860;5.714;2022-12-13T00:55:21;-5.30;99.90
24454;DHT22;12627;50.860;5.714;2022-12-13T00:57:48;-5.30;99.90
24454;DHT22;12627;50.860;5.714;2022-12-13T01:00:17;-5.20;99.90
24454;DHT22;12627;50.860;5.714;2022-12-13T01:02:44;-5.30;99.90
24454;DHT22;12627;50.860;5.714;2022-12-13T01:05:12;-5.40;99.90
24454;DHT22;12627;50.860;5.714;2022-12-13T01:07:39;-5.40;99.90
24454;DHT22;12627;50.860;5.714;2022-12-13T01:10:10;-5.40;99.90
24454;DHT22;12627;50.860;5.714;2022-12-13T01:12:37;-5.50;99.90
24454;DHT22;12627;50.860;5.714;2022-12-13T01:15:06;-5.40;99.90
24454;DHT22;12627;50.860;5.714;2022-12-13T01:17:35;-5.20;99.90
24454;DHT22;12627;50.860;5.714;2022-12-13T01:20:02;-5.10;99.90
24454;DHT22;12627;50.860;5.714;2022-12-13T01:22:30;-5.00;99.90
24454;DHT22;12627;50.860;5.714;2022-12-13T01:24:58;-4.90;99.90
24454;DHT22;12627;50.860;5.714;2022-12-13T01:27:25;-4.90;99.90
24454;DHT22;12627;50.860;5.714;2022-12-13T01:29:52;-5.10;99.90
24454;DHT22;12627;50.860;5.714;2022-12-13T01:32:19;-5.20;99.90
24454;DHT22;12627;50.860;5.714;2022-12-13T01:34:48;-5.30;99.90
24454;DHT22;12627;50.860;5.714;2022-12-13T01:37:15;-5.40;99.90
24454;DHT22;12627;50.860;5.714;2022-12-13T01:39:43;-5.30;99.90
24454;DHT22;12627;50.860;5.714;2022-12-13T01:42:13;-5.20;99.90
24454;DHT22;12627;50.860;5.714;2022-12-13T01:45:00;-5.00;99.90
24454;DHT22;12627;50.860;5.714;2022-12-13T01:47:33;-5.10;99.90
24454;DHT22;12627;50.860;5.714;2022-12-13T01:50:07;-5.20;99.90
24454;DHT22;12627;50.860;5.714;2022-12-13T01:52:35;-5.30;99.90
24454;DHT22;12627;50.860;5.714;2022-12-13T01:55:06;-5.30;99.90
24454;DHT22;12627;50.860;5.714;2022-12-13T01:57:36;-5.20;99.90
24454;DHT22;12627;50.860;5.714;2022-12-13T02:00:07;-5.10;99.90
24454;DHT22;12627;50.860;5.714;2022-12-13T02:02:35;-5.10;99.90
24454;DHT22;12627;50.860;5.714;2022-12-13T02:05:07;-4.60;99.90
24454;DHT22;12627;50.860;5.714;2022-12-13T02:07:37;-5.00;99.90
24454;DHT22;12627;50.860;5.714;2022-12-13T02:10:07;-5.10;99.90
24454;DHT22;12627;50.860;5.714;2022-12-13T02:12:36;-5.00;99.90
24454;DHT22;12627;50.860;5.714;2022-12-13T02:15:06;-5.00;99.90
24454;DHT22;12627;50.860;5.714;2022-12-13T02:17:51;-5.10;99.90
24454;DHT22;12627;50.860;5.714;2022-12-13T02:26:46;-5.10;99.90
24454;DHT22;12627;50.860;5.714;2022-12-13T02:32:31;-5.20;99.90
24454;DHT22;12627;50.860;5.714;2022-12-13T02:35:05;-5.00;99.90
24454;DHT22;12627;50.860;5.714;2022-12-13T02:37:45;-5.40;99.90
24454;DHT22;12627;50.860;5.714;2022-12-13T02:40:19;-5.20;99.90
24454;DHT22;12627;50.860;5.714;2022-12-13T02:42:51;-5.10;99.90
24454;DHT22;12627;50.860;5.714;2022-12-13T02:45:26;-5.20;99.90
24454;DHT22;12627;50.860;5.714;2022-12-13T02:47:57;-5.20;99.90
24454;DHT22;12627;50.860;5.714;2022-12-13T02:50:26;-5.20;99.90
24454;DHT22;12627;50.860;5.714;2022-12-13T02:52:54;-5.20;99.90
24454;DHT22;12627;50.860;5.714;2022-12-13T02:55:23;-5.20;99.90
24454;DHT22;12627;50.860;5.714;2022-12-13T02:57:51;-5.20;99.90
24454;DHT22;12627;50.860;5.714;2022-12-13T03:00:19;-5.40;99.90
24454;DHT22;12627;50.860;5.714;2022-12-13T03:03:00;-5.20;99.90
24454;DHT22;12627;50.860;5.714;2022-12-13T03:05:39;-5.30;99.90
24454;DHT22;12627;50.860;5.714;2022-12-13T03:08:34;-5.40;99.90
24454;DHT22;12627;50.860;5.714;2022-12-13T03:11:07;-5.50;99.90
24454;DHT22;12627;50.860;5.714;2022-12-13T03:13:43;-5.40;99.90
24454;DHT22;12627;50.860;5.714;2022-12-13T03:16:20;-5.30;99.90
24454;DHT22;12627;50.860;5.714;2022-12-13T03:18:51;-5.20;99.90
24454;DHT22;12627;50.860;5.714;2022-12-13T03:21:19;-5.30;99.90
24454;DHT22;12627;50.860;5.714;2022-12-13T03:23:46;-5.40;99.90
24454;DHT22;12627;50.860;5.714;2022-12-13T03:26:15;-5.50;99.90
24454;DHT22;12627;50.860;5.714;2022-12-13T03:28:43;-5.50;99.90
24454;DHT22;12627;50.860;5.714;2022-12-13T03:31:10;-5.60;99.90
24454;DHT22;12627;50.860;5.714;2022-12-13T03:33:37;-5.60;99.90
24454;DHT22;12627;50.860;5.714;2022-12-13T03:36:07;-5.50;99.90
24454;DHT22;12627;50.860;5.714;2022-12-13T03:38:35;-5.60;99.90
24454;DHT22;12627;50.860;5.714;2022-12-13T03:41:06;-5.40;99.90
24454;DHT22;12627;50.860;5.714;2022-12-13T03:43:34;-5.50;99.90
24454;DHT22;12627;50.860;5.714;2022-12-13T03:46:02;-5.50;99.90
24454;DHT22;12627;50.860;5.714;2022-12-13T03:48:29;-5.40;99.90
24454;DHT22;12627;50.860;5.714;2022-12-13T03:50:56;-5.40;99.90
24454;DHT22;12627;50.860;5.714;2022-12-13T03:53:25;-5.30;99.90
24454;DHT22;12627;50.860;5.714;2022-12-13T03:55:52;-5.10;99.90
24454;DHT22;12627;50.860;5.714;2022-12-13T03:58:19;-4.50;99.90
24454;DHT22;12627;50.860;5.714;2022-12-13T04:00:47;-5.10;99.90
24454;DHT22;12627;50.860;5.714;2022-12-13T04:03:14;-4.70;99.90
24454;DHT22;12627;50.860;5.714;2022-12-13T04:05:42;-5.20;99.90
24454;DHT22;12627;50.860;5.714;2022-12-13T04:08:09;-5.30;99.90
24454;DHT22;12627;50.860;5.714;2022-12-13T04:10:37;-5.30;99.90
24454;DHT22;12627;50.860;5.714;2022-12-13T04:13:04;-5.30;99.90
24454;DHT22;12627;50.860;5.714;2022-12-13T04:15:49;-5.30;99.90
24454;DHT22;12627;50.860;5.714;2022-12-13T04:18:17;-5.30;99.90
24454;DHT22;12627;50.860;5.714;2022-12-13T04:20:45;-5.30;99.90
24454;DHT22;12627;50.860;5.714;2022-12-13T04:23:12;-5.40;99.90
24454;DHT22;12627;50.860;5.714;2022-12-13T04:25:41;-5.40;99.90
24454;DHT22;12627;50.860;5.714;2022-12-13T04:28:09;-5.30;99.90
24454;DHT22;12627;50.860;5.714;2022-12-13T04:30:36;-5.20;99.90
24454;DHT22;12627;50.860;5.714;2022-12-13T04:33:03;-5.20;99.90
24454;DHT22;12627;50.860;5.714;2022-12-13T04:35:30;-5.10;99.90
24454;DHT22;12627;50.860;5.714;2022-12-13T04:37:58;-5.30;99.90
24454;DHT22;12627;50.860;5.714;2022-12-13T04:40:25;-5.40;99.90
24454;DHT22;12627;50.860;5.714;2022-12-13T04:42:53;-5.40;99.90
24454;DHT22;12627;50.860;5.714;2022-12-13T04:45:21;-5.40;99.90
24454;DHT22;12627;50.860;5.714;2022-12-13T04:47:48;-5.50;99.90
24454;DHT22;12627;50.860;5.714;2022-12-13T04:50:16;-5.50;99.90
24454;DHT22;12627;50.860;5.714;2022-12-13T04:52:43;-5.60;99.90
24454;DHT22;12627;50.860;5.714;2022-12-13T04:55:11;-5.60;99.90
24454;DHT22;12627;50.860;5.714;2022-12-13T04:57:38;-5.70;99.90
24454;DHT22;12627;50.860;5.714;2022-12-13T05:00:10;-5.80;99.90
24454;DHT22;12627;50.860;5.714;2022-12-13T05:02:38;-5.90;99.90
24454;DHT22;12627;50.860;5.714;2022-12-13T05:05:07;-5.80;99.90
24454;DHT22;12627;50.860;5.714;2022-12-13T05:07:35;-5.80;99.90
24454;DHT22;12627;50.860;5.714;2022-12-13T05:10:02;-5.80;99.90
24454;DHT22;12627;50.860;5.714;2022-12-13T05:12:29;-5.70;99.90
24454;DHT22;12627;50.860;5.714;2022-12-13T05:14:56;-5.30;99.90
24454;DHT22;12627;50.860;5.714;2022-12-13T05:17:25;-5.80;99.90
24454;DHT22;12627;50.860;5.714;2022-12-13T05:19:52;-5.80;99.90
24454;DHT22;12627;50.860;5.714;2022-12-13T05:22:19;-5.70;99.90
24454;DHT22;12627;50.860;5.714;2022-12-13T05:24:47;-5.70;99.90
24454;DHT22;12627;50.860;5.714;2022-12-13T05:27:14;-5.70;99.90
24454;DHT22;12627;50.860;5.714;2022-12-13T05:29:41;-5.70;99.90
24454;DHT22;12627;50.860;5.714;2022-12-13T05:32:08;-5.70;99.90
24454;DHT22;12627;50.860;5.714;2022-12-13T05:34:37;-5.60;99.90
24454;DHT22;12627;50.860;5.714;2022-12-13T05:37:04;-5.60;99.90
24454;DHT22;12627;50.860;5.714;2022-12-13T05:39:31;-5.60;99.90
24454;DHT22;12627;50.860;5.714;2022-12-13T05:41:58;-5.60;99.90
24454;DHT22;12627;50.860;5.714;2022-12-13T05:44:26;-4.90;99.90
24454;DHT22;12627;50.860;5.714;2022-12-13T05:46:53;-5.60;99.90
24454;DHT22;12627;50.860;5.714;2022-12-13T05:49:20;-5.60;99.90
24454;DHT22;12627;50.860;5.714;2022-12-13T05:51:49;-5.50;99.90
24454;DHT22;12627;50.860;5.714;2022-12-13T05:54:16;-5.50;99.90
24454;DHT22;12627;50.860;5.714;2022-12-13T05:56:43;-5.50;99.90
24454;DHT22;12627;50.860;5.714;2022-12-13T05:59:10;-5.40;99.90
24454;DHT22;12627;50.860;5.714;2022-12-13T06:01:37;-5.30;99.90
24454;DHT22;12627;50.860;5.714;2022-12-13T06:04:05;-5.40;99.90
24454;DHT22;12627;50.860;5.714;2022-12-13T06:06:32;-5.50;99.90
24454;DHT22;12627;50.860;5.714;2022-12-13T06:09:00;-5.50;99.90
24454;DHT22;12627;50.860;5.714;2022-12-13T06:11:28;-5.50;99.90
24454;DHT22;12627;50.860;5.714;2022-12-13T06:13:55;-5.60;99.90
24454;DHT22;12627;50.860;5.714;2022-12-13T06:16:23;-5.70;99.90
24454;DHT22;12627;50.860;5.714;2022-12-13T06:18:50;-5.60;99.90
24454;DHT22;12627;50.860;5.714;2022-12-13T06:21:18;-5.60;99.90
24454;DHT22;12627;50.860;5.714;2022-12-13T06:23:45;-5.60;99.90
24454;DHT22;12627;50.860;5.714;2022-12-13T06:26:14;-5.70;99.90
24454;DHT22;12627;50.860;5.714;2022-12-13T06:28:41;-5.80;99.90
24454;DHT22;12627;50.860;5.714;2022-12-13T06:31:08;-5.70;99.90
24454;DHT22;12627;50.860;5.714;2022-12-13T06:33:35;-5.60;99.90
24454;DHT22;12627;50.860;5.714;2022-12-13T06:36:04;-4.20;99.90
24454;DHT22;12627;50.860;5.714;2022-12-13T06:38:32;-5.70;99.90
24454;DHT22;12627;50.860;5.714;2022-12-13T06:41:07;-5.60;99.90
24454;DHT22;12627;50.860;5.714;2022-12-13T06:43:36;-5.70;99.90
24454;DHT22;12627;50.860;5.714;2022-12-13T06:46:04;-4.50;99.90
24454;DHT22;12627;50.860;5.714;2022-12-13T06:48:31;-5.80;99.90
24454;DHT22;12627;50.860;5.714;2022-12-13T06:50:59;-5.90;99.90
24454;DHT22;12627;50.860;5.714;2022-12-13T06:53:27;-5.90;99.90
24454;DHT22;12627;50.860;5.714;2022-12-13T06:55:55;-5.80;99.90
24454;DHT22;12627;50.860;5.714;2022-12-13T06:58:23;-5.70;99.90
24454;DHT22;12627;50.860;5.714;2022-12-13T07:01:00;-5.60;99.90
24454;DHT22;12627;50.860;5.714;2022-12-13T07:03:27;-4.90;99.90
24454;DHT22;12627;50.860;5.714;2022-12-13T07:05:57;-5.50;99.90
24454;DHT22;12627;50.860;5.714;2022-12-13T07:08:25;-5.40;99.90
24454;DHT22;12627;50.860;5.714;2022-12-13T07:10:52;-5.30;99.90
24454;DHT22;12627;50.860;5.714;2022-12-13T07:13:20;-5.30;99.90
24454;DHT22;12627;50.860;5.714;2022-12-13T07:15:48;-5.30;99.90
24454;DHT22;12627;50.860;5.714;2022-12-13T07:18:17;-5.30;99.90
24454;DHT22;12627;50.860;5.714;2022-12-13T07:20:44;-5.30;99.90
24454;DHT22;12627;50.860;5.714;2022-12-13T07:23:12;-5.00;99.90
24454;DHT22;12627;50.860;5.714;2022-12-13T07:25:40;-5.30;99.90
24454;DHT22;12627;50.860;5.714;2022-12-13T07:28:08;-5.30;99.90
24454;DHT22;12627;50.860;5.714;2022-12-13T07:30:37;-5.30;99.90
24454;DHT22;12627;50.860;5.714;2022-12-13T07:33:05;-5.30;99.90
24454;DHT22;12627;50.860;5.714;2022-12-13T07:35:33;-5.30;99.90
24454;DHT22;12627;50.860;5.714;2022-12-13T07:38:01;-5.30;99.90
24454;DHT22;12627;50.860;5.714;2022-12-13T07:40:28;-5.30;99.90
24454;DHT22;12627;50.860;5.714;2022-12-13T07:42:55;-5.20;99.90
24454;DHT22;12627;50.860;5.714;2022-12-13T07:45:23;-5.10;99.90
24454;DHT22;12627;50.860;5.714;2022-12-13T07:47:51;-4.90;99.90
24454;DHT22;12627;50.860;5.714;2022-12-13T07:50:19;-4.80;99.90
24454;DHT22;12627;50.860;5.714;2022-12-13T07:52:48;-4.70;99.90
24454;DHT22;12627;50.860;5.714;2022-12-13T07:55:17;-4.60;99.90
24454;DHT22;12627;50.860;5.714;2022-12-13T07:57:46;-4.60;99.90
24454;DHT22;12627;50.860;5.714;2022-12-13T08:00:14;-4.50;99.90
24454;DHT22;12627;50.860;5.714;2022-12-13T08:02:41;-4.40;99.90
24454;DHT22;12627;50.860;5.714;2022-12-13T08:05:08;-4.30;99.90
24454;DHT22;12627;50.860;5.714;2022-12-13T08:07:36;-4.20;99.90
24454;DHT22;12627;50.860;5.714;2022-12-13T08:10:05;-4.10;99.90
24454;DHT22;12627;50.860;5.714;2022-12-13T08:12:32;-3.70;99.90
24454;DHT22;12627;50.860;5.714;2022-12-13T08:14:59;-3.20;99.90
24454;DHT22;12627;50.860;5.714;2022-12-13T08:17:27;-2.90;99.90
24454;DHT22;12627;50.860;5.714;2022-12-13T08:19:54;-2.70;99.90
24454;DHT22;12627;50.860;5.714;2022-12-13T08:22:21;-2.60;99.90
24454;DHT22;12627;50.860;5.714;2022-12-13T08:24:49;-2.60;99.90
24454;DHT22;12627;50.860;5.714;2022-12-13T08:27:18;-2.30;99.90
24454;DHT22;12627;50.860;5.714;2022-12-13T08:29:45;-2.00;99.90
24454;DHT22;12627;50.860;5.714;2022-12-13T08:32:13;-1.70;99.90
24454;DHT22;12627;50.860;5.714;2022-12-13T08:34:41;-1.60;99.90
24454;DHT22;12627;50.860;5.714;2022-12-13T08:37:08;-1.50;99.90
24454;DHT22;12627;50.860;5.714;2022-12-13T08:39:37;-1.80;99.90
24454;DHT22;12627;50.860;5.714;2022-12-13T08:42:05;-1.70;99.90
24454;DHT22;12627;50.860;5.714;2022-12-13T08:44:35;-1.80;99.90
24454;DHT22;12627;50.860;5.714;2022-12-13T08:47:02;-1.80;99.90
24454;DHT22;12627;50.860;5.714;2022-12-13T08:49:29;-1.80;99.90
24454;DHT22;12627;50.860;5.714;2022-12-13T08:51:57;-1.60;99.90
24454;DHT22;12627;50.860;5.714;2022-12-13T08:54:25;-1.20;99.90
24454;DHT22;12627;50.860;5.714;2022-12-13T08:56:52;-1.20;99.90
24454;DHT22;12627;50.860;5.714;2022-12-13T08:59:22;-1.30;99.90
24454;DHT22;12627;50.860;5.714;2022-12-13T09:01:52;-1.20;99.90
24454;DHT22;12627;50.860;5.714;2022-12-13T09:04:19;-1.10;99.90
24454;DHT22;12627;50.860;5.714;2022-12-13T09:06:46;-1.00;99.90
24454;DHT22;12627;50.860;5.714;2022-12-13T09:09:14;-0.60;99.90
24454;DHT22;12627;50.860;5.714;2022-12-13T09:11:41;-0.50;99.90
24454;DHT22;12627;50.860;5.714;2022-12-13T09:14:09;-0.50;99.90
24454;DHT22;12627;50.860;5.714;2022-12-13T09:16:36;-0.60;99.90
24454;DHT22;12627;50.860;5.714;2022-12-13T09:19:05;-0.30;99.90
24454;DHT22;12627;50.860;5.714;2022-12-13T09:21:33;-0.10;99.90
24454;DHT22;12627;50.860;5.714;2022-12-13T09:24:00;0.00;99.90
24454;DHT22;12627;50.860;5.714;2022-12-13T09:26:28;0.40;99.90
24454;DHT22;12627;50.860;5.714;2022-12-13T09:28:55;0.50;99.90
24454;DHT22;12627;50.860;5.714;2022-12-13T09:31:22;0.80;99.90
24454;DHT22;12627;50.860;5.714;2022-12-13T23:53:10;-2.50;99.90
24454;DHT22;12627;50.860;5.714;2022-12-13T23:55:37;-2.50;99.90
24454;DHT22;12627;50.860;5.714;2022-12-13T23:58:05;-2.40;99.90
